Terminal Aerodrome Forecast
Issued by NWS Memphis, TN

Home | Current Version | Previous Version | Text Only | Print | Product List | Glossary On
Versions: 1 2 3 4 5 6 7 8 9 10 11 12 13 14
000
FTUS44 KMEG 251121
TAFJBR
TAF
KJBR 251121Z 2512/2612 21010KT P6SM VCSH BKN060 OVC100
     FM251500 24012G18KT P6SM -SHRA SCT035 OVC060
     FM251800 28014G22KT P6SM VCSH SCT025 OVC035
      TEMPO 2518/2522 6SM SHRA BKN025
     FM260200 31016G24KT P6SM OVC030
     FM260800 33010G16KT P6SM BKN025=

USA.gov is the U.S. government's official web portal to all federal, state and local government web resources and services.